Jackpot Winner Texas Poker

Kini Telah hadir Jackpot SUPER ROYAL FLUSH

Kini Telah hadir Jackpot 2000 (khusus table VIP keatas).

Ikutilah global jackpot yang tersedia di system kami, dengan system jackpot terbaru dan pertama di indonesia, anda dapat membeli jackpot dengan harga 100 rupiah saja dan menangkan hadiahnya hingga puluhan juta rupiah.

Jackpot bukanlah suatu keharusan untuk dibeli, namun kami memberikan suatu fitur tambahan untuk member tercinta dari www.npselalu.net.

Terdapat tiga pilihan harga jackpot yang bisa anda beli yaitu :100,500,1000 dan 2000(khusus table VIP Keatas) rupiah.

Hadiah dari Multi jackpot system www.npselalu.net

  1. full house x 10 harga jackpot yang anda beli.
      (contoH:anda membeli 1000 maka:1000 X10 = 10.000)
  2. four of kind x 250 harga jackpot yang anda beli
      (contoH:anda membeli 1000 maka:1000 X250 = 250.000)
  3. Straight flush x 1200
      (contoH:anda membeli 1000 maka:1000 X1200 = 1.200.000)
  4. Royal flush x 10000 harga jackpot yang anda beli
      (contoH:anda membeli 1000 maka:1000 X10000 = 10.000.000)
  5. SUPER ROYAL FLUSH x 30000 harga jackpot yang anda beli
      (contoH:anda membeli 1000 maka:1000 X30000 = 30.000.000)

Kondisi kartu

  1. full house adalah kondisi kartu dimana kartu anda dan kartu tengah dengan total 7 kartu bisa mendapatkan nilai 5 kartu dengan kombinasi 1 tris(three of kind) dan 1 pair, contoh 3 kartu 10 dan 2 kartu 5
  2. Four of kind adalah kondisi kartu dimana kartu anda dan kartu tengah dengan total 7 kartu bisa mendapatkan nilai 5 kartu dengan kombinasi 4 kartu yang sama jumlah dan 1 kartu apapun juga contoh anda mendapatkan 4 buah kartu angka 3 dan 1 kartu apapun.
  3. Straight flush adalah kondisi kartu dimana kartu anda dan kartu tengah dengan total 7 kartu bisa mendapatkan nilai 5 kartu dengan kombinasi seri / staright dengan kembang yang sama contoh : urutan kartu dari angka 5, 6, 7, 8 , 9 10 dengan kembang yg sama misalnya as hati
  4. Royal flush adalah kondisi kartu dimana kartu anda dan kartu tengah dengan total 7 kartu bisa mendapatkan nilai 5 kartu dengan kombinasi seri / staright dengan kembang yang sama tetapi kartu tersebut haruslah dimulai dari 10. contoh 10, Queen, Jack, King dan aces dengan kembang yang sama
  5. Super Royal flush adalah kondisi kartu dimana Kedua kartu anda digabung dengan 3 kartu pertama meja haruslah royal flush. contoh kartu anda10,Queen dan 3 kartu pertama meja adalah Jack, King dan aces dengan kembang yang sama

Demikian adalah penjelasan dari Multi Jackpot www.npselalu.net terima kasih dan selamat bermain salam hoki dari kami


Jackpot Winner

TOP SUPER ROYAL FLUSH
No.TanggalNamaPriceWin
124/01 18:50ALAN_TAN88Super Royal flush15,000,000
224/01 18:36BIRIN27Super Royal flush3,000,000
324/01 14:47MAOK88888Super Royal flush3,000,000
424/01 13:52KINGJUICEMSuper Royal flush30,000,000
524/01 13:35WARRIOR_GSuper Royal flush3,000,000
TOP ROYAL FLUSH
No.TanggalNamaPriceWin
124/01 20:05PANJASIEN8Royal flush1,000,000
224/01 20:02MZHZGZM9QURoyal flush10,000,000
324/01 19:55MANCIKRoyal flush20,000,000
424/01 19:45MANIKNOTRoyal flush10,000,000
524/01 19:17B0687442Royal flush20,000,000
TOP STRAIGHT FLUSH
No.TanggalNamaPriceWin
124/01 20:14KURO212Straight Flush600,000
224/01 20:12DELALAHWAEStraight Flush600,000
324/01 20:11STEELVOICEStraight Flush600,000
424/01 20:08MENANGKAN9Straight Flush120,000
524/01 20:06LEAKKStraight Flush120,000
LATEST JACKPOT
No.TanggalNamaPriceWin
124/01 20:16GODANG77Full House5,000
224/01 20:16BC0165C2Full House1,000
324/01 20:16NCUZZ123Full House1,000
424/01 20:16DILALAEFull House1,000
524/01 20:16CHAN3107Full House5,000
624/01 20:15R1FKI777Full House5,000
724/01 20:15XTRACT53Full House5,000
824/01 20:15KLJFGZHMKMFull House5,000
924/01 20:15QQEKOOXWFull House1,000
1024/01 20:15ANGGA7SFull House5,000
1124/01 20:15DANZER01Four Of A Kind25,000
1224/01 20:15PRILIE12Full House1,000
1324/01 20:15TEMPILANGFull House5,000
1424/01 20:15DNIE27Full House5,000
1524/01 20:15MUJENNNFull House5,000
1624/01 20:15REDS46Full House1,000
1724/01 20:15KINEW99Full House5,000
1824/01 20:15CHOKY999Full House1,000
1924/01 20:15APEX8887Full House5,000
2024/01 20:15SUGI21Full House1,000
2124/01 20:15TOMORROW_Full House10,000
2224/01 20:15WE_JUSTFull House10,000
2324/01 20:15JAY50Full House10,000
2424/01 20:15JOINDONKFull House1,000
2524/01 20:15IWAN6555Full House5,000
2624/01 20:15KAMUENAK99Full House1,000
2724/01 20:15Z657O4Q4E7Full House5,000
2824/01 20:15A105FMB4YZFull House10,000
2924/01 20:15G0ROWOXFull House1,000
3024/01 20:15MASK001Full House1,000
3124/01 20:15LIARBRO2Full House10,000
3224/01 20:15STURGLEFull House5,000
3324/01 20:15LIMBSFull House10,000
3424/01 20:15NJR2222Full House10,000
3524/01 20:15WIDROW86Full House5,000
3624/01 20:15ATAR29Full House1,000
3724/01 20:15KRQYUEO5BUFull House5,000
3824/01 20:15TOTOGIFull House1,000
3924/01 20:15AKADEM1XFull House1,000
4024/01 20:15HANS77Full House5,000
4124/01 20:15GALAXI39Full House1,000
4224/01 20:15MR_LAU_8Full House5,000
4324/01 20:15SL4NK8Full House1,000
4424/01 20:15MENYAN305Full House5,000
4524/01 20:15UCOXZ99Four Of A Kind125,000
4624/01 20:15PURNA29Full House10,000
4724/01 20:15WAYAN33Full House1,000
4824/01 20:15WE_JUSTFull House10,000
4924/01 20:15GAPIT77Full House5,000
5024/01 20:15RIFKIN45Full House5,000
Dewa.FM